arxmliv
arxmliv build tool
 
KWARC group
LaTeXML
About
   
 

Detailed info

Back to Homepage

List of missing_macros

No. Date Filename num_warningnum_errornum_xmargok_xmargnum_xmathok_xmathMissing macros
156401 2013-02-28 01:13:27 /0106/hep-ph.0106044 2770000[\Text, \Line, \DashCArc, \Photon, \CArc, \PhotonArc, \DashLine].
156402 2013-02-28 01:12:08 /0106/hep-ph.0106033 1910000[{centering}].
156403 2013-02-28 01:12:02 /0106/hep-ph.0106035 26170000[\address, \abstracts, \psfig]; 1 missing file[Rinton-P9x6.cls].
156404 2013-02-28 01:10:58 /0106/hep-ph.0106009 2670000[\affil, \citep, \correspondence, \firstpage, {acknowledgements}, \balance, \pubyear]; 1 missing file[icrc.cls].
156405 2013-02-28 01:10:58 /0106/hep-ph.0106010 1560000[\affil, \citep, \correspondence, \firstpage, \balance, \pubyear]; 1 missing file[icrc.cls].
156406 2013-02-28 01:10:50 /0106/hep-ph.0106011 360000[\affil, \citep, \correspondence, \firstpage, {acknowledgements}, \pubyear]; 1 missing file[icrc.cls].
156407 2013-02-28 01:10:46 /0106/hep-ph.0106015 490000[\affil, \citep, \correspondence, \runninghead, \firstpage, \pdfcompresslevel, \citet, {acknowledgements}, \pubyear]; 1 missing file[icrc.cls].
156408 2013-02-28 01:10:42 /0106/hep-ph.0106014 190000[\affil, \citep, \correspondence, \runninghead, \firstpage, \pdfcompresslevel, \citet, {acknowledgements}, \pubyear]; 1 missing file[icrc.cls].
156409 2013-02-28 01:10:38 /0106/hep-ph.0106003 9130000[\rotate].
156410 2013-02-28 01:10:31 /0106/hep-lat.0106019 7540000[\toctitle, \D, \E, \I].
156411 2013-02-28 01:09:49 /0106/hep-lat.0106014 030000[\extrasenglish, \dateenglish, \captionsenglish].
156412 2013-02-28 01:09:41 /0106/hep-ex.0106102 7120000[\theappendix, {sidewaystable}, {sidewaysfigure}].
156413 2013-02-28 01:09:34 /0106/hep-ex.0106056 8180000[\theappendix, \frontmatter, \emptyheads, \thechapter, \@currentID, \blankpage, \fancyheads]; 2 missing files[multind.sty, sourcebook.cls].
156414 2013-02-28 01:09:26 /0106/hep-lat.0106006 340000[\Text, \ArrowLine, \SetWidth, \PhotonArc].
156415 2013-02-28 01:09:23 /0106/hep-lat.0106008 330000[\psfig]; 2 missing files[{epsf.sty}, {psfig.sty}].
156416 2013-02-28 01:09:21 /0106/hep-lat.0106004 3220000[\psfig]; 1 missing file[psfig].
156417 2013-02-28 01:09:19 /0106/hep-ex.0106057 3380000[\theappendix, \frontmatter, \emptyheads, \thechapter, \@currentID, \blankpage, \fancyheads]; 2 missing files[multind.sty, sourcebook.cls].
156418 2013-02-28 01:09:00 /0106/hep-ex.0106098 540000[\sidecaption, \gev]; 2 missing files[./tdrdefinitions.sty, ./sidecaption.sty].
156419 2013-02-28 01:08:59 /0106/hep-ex.0106090 2750000[{acknowledgments}, \thechapter, \email, \@currentID, \affiliation]; 1 missing file[revtex4b3.cls].
156420 2013-02-28 01:08:59 /0106/hep-ex.0106096 340000[\psfig]; 1 missing file[psfig].
156421 2013-02-28 01:08:50 /0106/hep-ex.0106103 1530000[\a].
156422 2013-02-28 01:08:46 /0106/hep-ex.0106058 2680000[\theappendix, \frontmatter, \emptyheads, \thechapter, \@currentID, \blankpage, \fancyheads]; 2 missing files[multind.sty, sourcebook.cls].
156423 2013-02-28 01:08:34 /0106/hep-ex.0106086 120000[\psfig]; 1 missing file[psfig].
156424 2013-02-28 01:08:32 /0106/hep-ex.0106087 2130000[\organization]; 1 missing file[camera-hepex.cls].
156425 2013-02-28 01:08:23 /0106/hep-ex.0106091 4100000[\includegraphics, \PLB, \epsfbox, \abstracts, \epsfxsize].
156426 2013-02-28 01:08:16 /0106/hep-ex.0106094 050000[\address, \abstracts]; 1 missing file[Moriond.sty].
156427 2013-02-28 01:08:15 /0106/hep-ex.0106055 2480000[\theappendix, \frontmatter, \emptyheads, \thechapter, \@currentID, \blankpage, \fancyheads]; 2 missing files[multind.sty, sourcebook.cls].
156428 2013-02-28 01:08:02 /0106/hep-ex.0106066 2830000[\Pep, \PZz, \Pem].
156429 2013-02-28 01:08:01 /0106/hep-ex.0106080 050000[\epsfbox, \abstracts, \epsfysize, \epsfxsize]; 1 missing file[ws.sty].
156430 2013-02-28 01:08:00 /0106/hep-ex.0106081 2120000[\PLB, \PRD, \Journal, \epsfbox, \abstracts, \NPB, \epsfxsize]; 1 missing file[ws.sty].
156431 2013-02-28 01:07:40 /0106/hep-ex.0106067 340000[\PRD, \abstracts, \epsfig].
156432 2013-02-28 01:07:38 /0106/hep-ex.0106069 060000[\epsfbox, \abstracts, \scalebox, \epsfysize, \epsfxsize]; 1 missing file[ws.sty].
156433 2013-02-28 01:07:34 /0106/hep-ex.0106063 21160000[\includegraphics, \address, \titlefoot, \lesssim, {shortabs}, \rotatebox, \CERNpreprint]; 1 missing file[dp_delphi.sty].
156434 2013-02-28 01:07:32 /0106/hep-ex.0106051 5540000[{sideways}].
156435 2013-02-28 01:07:18 /0106/hep-ex.0106073 110000[\organization]; 1 missing file[camera-hepex.cls].
156436 2013-02-28 01:07:02 /0106/hep-ex.0106044 010000[\smaller].
156437 2013-02-28 01:06:58 /0106/hep-ex.0106023 14610000[\institute].
156438 2013-02-28 01:06:49 /0106/hep-ex.0106045 2730000[\address, \abstracts]; 1 missing file[Moriond.sty].
156439 2013-02-28 01:06:29 /0106/hep-ex.0106043 3230000[\smaller].
156440 2013-02-28 01:06:22 /0106/hep-ex.0106037 680000[\affil, \correspondence, \firstpage, \balance, \figbox, \pubyear]; 1 missing file[icrc.cls].
156441 2013-02-28 01:06:16 /0106/hep-ex.0106019 4810000[\setcaptionwidth].
156442 2013-02-28 01:06:11 /0106/hep-ex.0106025 670000[\affil, \citep, \correspondence, \firstpage, \citet, {acknowledgements}, \pubyear]; 1 missing file[icrc.cls].
156443 2013-02-28 01:06:10 /0106/hep-ex.0106024 480000[\affil, \citep, \correspondence, \firstpage, \citet, {acknowledgements}, \pubyear]; 2 missing files[icrc.cls, u.fontmap].
156444 2013-02-28 01:05:57 /0106/hep-ex.0106029 820000[\fcaption]; 1 missing file[procrpc4.sty].
156445 2013-02-28 01:05:41 /0106/hep-ex.0106014 1100000[\epsfig, \figurebox, \epsfxsize].
156446 2013-02-28 01:05:33 /0106/hep-ex.0106020 1550000[\includegraphics, \PLB, \Journal, \abstracts]; 1 missing file[ws.sty].
156447 2013-02-28 01:05:27 /0106/hep-ex.0106005 340000[\psfig]; 1 missing file[psfig].
156448 2013-02-28 01:05:27 /0106/hep-ex.0106011 1280000[{Enumerate}]; 1 missing file[JAC2000.cls].
156449 2013-02-28 01:05:24 /0106/gr-qc.0106096 42320000[\theappendix].
156450 2013-02-28 01:05:09 /0106/gr-qc.0106090 110000[\theappendix].
156451 2013-02-28 01:04:47 /0106/hep-ex.0106001 15230000[\pt, \sm, \met, \ttb, \gls, \niso, \et, \vecmet, \mgls, \qqb, \include, \sq, \msq, \pyt, \vecb, \ppb, \stilde, \isaj, \Ht, \gev, \ppbar, \herw].
156452 2013-02-28 01:04:31 /0106/hep-ex.0106002 360000[\affil, \citep, \correspondence, \firstpage, {acknowledgements}, \pubyear]; 1 missing file[icrc.cls].
156453 2013-02-28 01:04:25 /0106/gr-qc.0106085 1240000[\toctitle, \E, \I]; 1 missing file[u.fontmap].
156454 2013-02-28 01:04:20 /0106/gr-qc.0106043 505240000[\setquadratic, \!ybot, \setlinear, \!xleft, \arrow, \!picbox, \!xright, \!ytop, \plot, \setcoordinatesystem, \setdashes, \putrule, \setsolid].
156455 2013-02-28 01:02:06 /0106/gr-qc.0106042 210000[\n].
156456 2013-02-28 01:02:03 /0106/gr-qc.0106029 3720000[\meter].
156457 2013-02-28 01:01:12 /0106/gr-qc.0106013 342510000[\copyrightheading, \fpage, \pub, \keywords, \runninghead, \abstracts, {references}, \textlineskip, \citen, \artsectnumbering]; 1 missing file[ijmpd.sty].
156458 2013-02-28 00:59:29 /0106/cs.0106056 1420000[{keywords}, {proof}]; 1 missing file[IEEEtran.cls].
156459 2013-02-28 00:59:26 /0106/cs.0106050 149170000[{rotate}, \figrule, \email, \dottedline, \shortcite, \removebrackets, {proof}, \dashline]; 1 missing file[tlp.cls].
156460 2013-02-28 00:58:39 /0106/cs.0106043 320000[\newcite]; 1 missing file[acl2001.sty].
156461 2013-02-28 00:58:26 /0106/cs.0106047 530000[\Tree]; 2 missing files[qtree.sty, naacl2001.sty].
156462 2013-02-28 00:57:58 /0106/cs.0106030 3220000[\institution]; 1 missing file[csit.sty].
156463 2013-02-28 00:57:31 /0106/cs.0106039 12110000[\newcite]; 1 missing file[colacl.sty].
156464 2013-02-28 00:57:27 /0106/cs.0106041 640000[\n@space, \ellipse, \path, \blacken].
156465 2013-02-28 00:57:20 /0106/cs.0106021 97130000[{CD}].
156466 2013-02-28 00:56:26 /0106/cs.0106028 11610000[\theappendix].
156467 2013-02-28 00:56:05 /0106/cs.0106026 5120000[\institution]; 1 missing file[csit.sty].
156468 2013-02-28 00:55:55 /0106/cs.0106027 2820000[\institution]; 1 missing file[csit.sty].
156469 2013-02-28 00:55:29 /0106/cs.0106029 1220000[\institution]; 1 missing file[csit.sty].
156470 2013-02-28 00:55:05 /0106/cs.0106011 220000[\citename]; 1 missing file[acl2001.sty].
156471 2013-02-28 00:55:04 /0106/cs.0106013 3820000[\institution]; 1 missing file[csit.sty].
156472 2013-02-28 00:54:45 /0106/cs.0106014 020000[\institution]; 1 missing file[csit.sty].
156473 2013-02-28 00:53:42 /0106/cond-mat.0106657 610000[\rotate].
156474 2013-02-28 00:53:37 /0106/cond-mat.0106637 350000[\email, \affiliation, {ruledtabular}, \acknowledgements, \onlinecite]; 1 missing file[revtex4b4.cls].
156475 2013-02-28 00:51:01 /0106/cond-mat.0106630 010000[\displaylimits].
156476 2013-02-28 00:49:49 /0106/cond-mat.0106618 620000[\psfig]; 1 missing file[psfig].
156477 2013-02-28 00:49:28 /0106/cond-mat.0106623 310000[\address].
156478 2013-02-28 00:48:51 /0106/cond-mat.0106604 410000[\address].
156479 2013-02-28 00:47:16 /0106/cond-mat.0106589 1310000[\psfrag].
156480 2013-02-28 00:43:35 /0106/cond-mat.0106559 180000[\@affiliation, \etal].
156481 2013-02-28 00:40:49 /0106/cond-mat.0106503 41510000[\boldsymbol].
156482 2013-02-28 00:40:34 /0106/cond-mat.0106502 680000[\rlvec, \drawdim, \setunitscale, \linewd, {texdraw}, \lellip, \move].
156483 2013-02-28 00:39:49 /0106/cond-mat.0106490 2020000[\citationstyle, \citationmode].
156484 2013-02-28 00:39:19 /0106/cond-mat.0106498 160000[\epsfbox, \mib, \citet, \epsfxsize]; 2 missing files[subeqna.sty, jpsjbs.sty].
156485 2013-02-28 00:38:35 /0106/cond-mat.0106468 730000[\emline, \theappendix, \bezier].
156486 2013-02-28 00:37:58 /0106/cond-mat.0106477 210000[\listfiles].
156487 2013-02-28 00:36:58 /0106/cond-mat.0106451 050000[\geometry].
156488 2013-02-28 00:36:24 /0106/cond-mat.0106438 5010000[\theparentequation].
156489 2013-02-28 00:36:19 /0106/cond-mat.0106437 5510000[\theparentequation].
156490 2013-02-28 00:35:39 /0106/cond-mat.0106423 280000[\euro, \pacs, \inst, \rec, \institute].
156491 2013-02-28 00:35:20 /0106/cond-mat.0106413 220000[\toctitle, \I].
156492 2013-02-28 00:33:13 /0106/cond-mat.0106371 710000[\pdfcompresslevel].
156493 2013-02-28 00:30:41 /0106/cond-mat.0106320 2680000[\includegraphics, \catchline, {history}, \keywords]; 1 missing file[ws.sty].
156494 2013-02-28 00:30:09 /0106/cond-mat.0106334 760000[\emline, \PLB, \Journal, \abstracts, \PRL, \NPB].
156495 2013-02-28 00:30:00 /0106/cond-mat.0106333 030000[\extrasenglish, \dateenglish, \captionsenglish].
156496 2013-02-28 00:29:49 /0106/cond-mat.0106318 17220000[{boxedminipage}]; 1 missing file[boxedminipage.sty].
156497 2013-02-28 00:29:36 /0106/cond-mat.0106323 1580000[\euro, \pacs, \rec, \institute, \Date].
156498 2013-02-28 00:28:11 /0106/cond-mat.0106299 040000[\twoimages, \@affiliation, \onefigure].
156499 2013-02-28 00:27:52 /0106/cond-mat.0106282 040000[\@affiliation, \onefigure].
156500 2013-02-28 00:27:44 /0106/cond-mat.0106289 570000[\includegraphics, {full}, {fullfigure}, \rotatebox]; 2 missing files[subeqna.sty, jpsjbs.sty].
156501 2013-02-28 00:27:10 /0106/cond-mat.0106279 2910000[\address].
156502 2013-02-28 00:26:33 /0106/cond-mat.0106250 240000[\extrasenglish, \noextrasenglish, \dateenglish, \captionsenglish].
156503 2013-02-28 00:26:31 /0106/cond-mat.0106266 050000[\epsfbox, \citet, \epsfxsize]; 2 missing files[subeqna.sty, jpsjbs.sty].
156504 2013-02-28 00:24:26 /0106/cond-mat.0106209 920000[\@affiliation].
156505 2013-02-28 00:23:40 /0106/cond-mat.0106202 310000[\citeasnoun].
156506 2013-02-28 00:22:50 /0106/cond-mat.0106193 1710000[\pdfcompresslevel].
156507 2013-02-28 00:21:39 /0106/cond-mat.0106183 250000[\kword, \abst, \inst, \recdate, \mib].
156508 2013-02-28 00:21:34 /0106/cond-mat.0106185 290000[\Real, \sodtitle, \dates, \lat, \rauthor, \sodauthor, \address, \PACS, \rtitle].
156509 2013-02-28 00:19:42 /0106/cond-mat.0106149 2580000[\epsfbox, \institute, \runningtitle, {opening}, \epsfysize].
156510 2013-02-28 00:18:38 /0106/cond-mat.0106155 4140000[\@open@row, \xyoption, \xymatrix, \ar]; 1 missing file[xy.sty].
156511 2013-02-28 00:18:14 /0106/cond-mat.0106138 010000[\pdfcompresslevel].
156512 2013-02-28 00:17:33 /0106/cond-mat.0106142 370000[\email, \@affiliation, \onefigure].
156513 2013-02-28 00:17:19 /0106/cond-mat.0106122 210000[\theappendix].
156514 2013-02-28 00:17:11 /0106/cond-mat.0106125 820000[\theappendix, \psfrag].
156515 2013-02-28 00:15:58 /0106/cond-mat.0106105 57260000[\rmove, \rlvec, \drawdim, \setunitscale, {texdraw}, \fcir, \lvec, \lcir, \linewd, \move, \lellip].
156516 2013-02-28 00:12:52 /0106/cond-mat.0106099 040000[\psfig]; 1 missing file[psfig].
156517 2013-02-28 00:11:43 /0106/cond-mat.0106074 3620000[\turnbox, \psfrag].
156518 2013-02-28 00:10:24 /0106/cond-mat.0106078 410000[\topmargin].
156519 2013-02-28 00:10:07 /0106/cond-mat.0106062 740000[\kword, \abst, \inst, \recdate].
156520 2013-02-28 00:09:56 /0106/cond-mat.0106063 1820000[{frontmatter}, {keyword}].
156521 2013-02-28 00:09:26 /0106/cond-mat.0106031 19820000[\theappendix]; 1 missing file[jeep.sty].
156522 2013-02-28 00:09:08 /0106/cond-mat.0106069 2230000[\CITE].
156523 2013-02-28 00:06:49 /0106/cond-mat.0106041 020000[\psbox]; 1 missing file[epsbox.sty].
156524 2013-02-28 00:06:36 /0106/cond-mat.0106033 48200000[\epsfbox, \epsfxsize]; 2 missing files[subeqna.sty, jpsjbs.sty].
156525 2013-02-28 00:06:05 /0106/cond-mat.0106044 350000[\Redakcjatrue, \headauthor, \PACS, \headtitle]; 1 missing file[size11.clo.sty].
156526 2013-02-28 00:03:42 /0106/cond-mat.0106015 570000[\affil, \NPG, \journal, \citep, \citet, \msnumber, {acknowledgements}].
156527 2013-02-28 00:02:44 /0106/cond-mat.0106004 340000[\toctitle, \D, \E, \I].
156528 2013-02-28 00:02:19 /0106/astro-ph.0106567 330000[\submitted].
156529 2013-02-28 00:01:56 /0106/astro-ph.0106564 230000[\gtrsim, \lesssim, \psfig].
156530 2013-02-28 00:01:53 /0106/astro-ph.0106573 630000[\Msun]; 2 missing files[report.sty, identfirst.sty].
156531 2013-02-28 00:01:15 /0106/astro-ph.0106572 0100000[\affil, \reference, \plotone, {references}, \tableline, \ga, \la]; 1 missing file[newpasp.sty].
156532 2013-02-28 00:01:04 /0106/astro-ph.0106558 470000[Align, \ls, \affiliation, \ns, \epsfig, {acknowledgements}]; 1 missing file[cupconf.sty].
156533 2013-02-27 23:59:54 /0106/astro-ph.0106546 060000[\affil, \reference, {references}, \plotfiddle, \acknowledgments]; 1 missing file[newpasp.sty].
156534 2013-02-27 23:59:22 /0106/astro-ph.0106535 15640000[\BY, \atque, {eqnletter}, \from, \ETC, \NAME, \TITLE, \IN, \instlist].
156535 2013-02-27 23:59:09 /0106/astro-ph.0106540 1710000[\tag].
156536 2013-02-27 23:58:56 /0106/astro-ph.0106527 1730000[\psfigurepath].
156537 2013-02-27 23:58:56 /0106/astro-ph.0106541 280000[\affil, \apj, \aj, \reference, {references}, \acknowledgments]; 1 missing file[IAU207_pasp.sty].
156538 2013-02-27 23:58:53 /0106/astro-ph.0106524 270000[\makeheadline, \headnote, \addresses, \psfigurepath, \summary, \keyw, \rf]; 1 missing file[an_art.cls].
156539 2013-02-27 23:58:05 /0106/astro-ph.0106516 030000[\extrasenglish, \dateenglish, \captionsenglish].
156540 2013-02-27 23:57:54 /0106/astro-ph.0106517 2210000[\toctitle].
156541 2013-02-27 23:57:49 /0106/astro-ph.0106521 6110000[\ltsim, \altaffilmark, \Received, \FigureFile, \Accepted, \email, \MO, \altaffiltext, \SetRunningHead, \KeyWords, \gtsim]; 1 missing file[pasj00.cls].
156542 2013-02-27 23:57:42 /0106/astro-ph.0106520 010000[\theappendix].
156543 2013-02-27 23:57:41 /0106/astro-ph.0106519 010000[\displaylimits].
156544 2013-02-27 23:57:11 /0106/astro-ph.0106504 170000[\affil, \citep, \correspondence, \firstpage, \citet, {acknowledgements}, \pubyear]; 1 missing file[icrc.cls].
156545 2013-02-27 23:57:08 /0106/astro-ph.0106505 170000[\affil, \citep, \correspondence, \firstpage, \citet, {acknowledgements}, \pubyear]; 1 missing file[icrc.cls].
156546 2013-02-27 23:57:03 /0106/astro-ph.0106508 0150000[\abstracts, \psfig]; 1 missing file[ws.sty].
156547 2013-02-27 23:57:00 /0106/astro-ph.0106511 1010000[\submitted].
156548 2013-02-27 23:56:52 /0106/astro-ph.0106510 0110000[\affil, \apj, \plotfiddle, \aap, \acknowledgments, \apjs, \mnras, \reference, {references}]; 1 missing file[newpasp.sty].
156549 2013-02-27 23:56:35 /0106/astro-ph.0106513 080000[\layoutstyle, {ltxfigure}].
156550 2013-02-27 23:56:27 /0106/astro-ph.0106494 920000[\ftnote, \epsfig].
156551 2013-02-27 23:56:24 /0106/astro-ph.0106495 620000[\psfig]; 1 missing file[psfig].
156552 2013-02-27 23:56:09 /0106/astro-ph.0106497 720000[\psfig]; 1 missing file[psfig.tex].
156553 2013-02-27 23:55:54 /0106/astro-ph.0106500 060000[\psfig]; 1 missing file[psfig].
156554 2013-02-27 23:55:49 /0106/astro-ph.0106502 380000[\affil, \citep, \correspondence, \firstpage, \citet, {acknowledgements}, \pubyear]; 1 missing file[icrc.cls].
156555 2013-02-27 23:55:46 /0106/astro-ph.0106503 190000[\affil, \citep, \correspondence, \firstpage, \citet, {acknowledgements}, \pubyear]; 1 missing file[icrc.cls].
156556 2013-02-27 23:55:40 /0106/astro-ph.0106486 220000[\submitted]; 1 missing file[apjfonts.sty].
156557 2013-02-27 23:55:38 /0106/astro-ph.0106484 280000[\affil, \arcsec, {references}, \ga, \plotfiddle, \la]; 1 missing file[IAU207_pasp.sty].
156558 2013-02-27 23:55:27 /0106/astro-ph.0106488 090000[\arcmin, \affil, \reference, \arcsec, {references}, \acknowledgements, \farcs]; 1 missing file[IAU207_pasp.sty].
156559 2013-02-27 23:55:23 /0106/astro-ph.0106490 2100000[\affil, \aaps, \aap, \sun, \mnras, \apjs, \reference, {references}, \plottwo]; 1 missing file[newpasp.sty].
156560 2013-02-27 23:54:54 /0106/astro-ph.0106465 1750000[Align].
156561 2013-02-27 23:54:50 /0106/astro-ph.0106480 110000[\theappendix].
156562 2013-02-27 23:54:50 /0106/astro-ph.0106481 060000[{acknowledgments}, \affil, \footnote, {keywords}, \articletitle, \email].
156563 2013-02-27 23:54:44 /0106/astro-ph.0106477 030000[\submitted]; 2 missing files[apjfonts.sty, onecolfloat.sty].
156564 2013-02-27 23:54:30 /0106/astro-ph.0106479 0200000[\affil, \apj, \aj, \apjl, \pasp, \plotone, \reference, \arcsec, {references}, \acknowledgements, \plottwo]; 1 missing file[newpasp.sty].
156565 2013-02-27 23:54:21 /0106/astro-ph.0106483 090000[\citeauthoryear, \citeyear, \surname, \institute, {opening}, {article}, \keywords, \shortcite, \citeauthor].
156566 2013-02-27 23:54:19 /0106/astro-ph.0106470 450000[\theappendix, \notablist, \nofiglist, \nomarkersintext]; 1 missing file[endfloat.sty].
156567 2013-02-27 23:54:18 /0106/astro-ph.0106468 1110000[{subequations}].
156568 2013-02-27 23:54:16 /0106/astro-ph.0106473 220000[{keywords}]; 1 missing file[kmn.sty].
156569 2013-02-27 23:54:03 /0106/astro-ph.0106467 070000[\surname, \runningauthor, \institute, {opening}, {article}, \keywords, \newdisplay].
156570 2013-02-27 23:53:59 /0106/astro-ph.0106469 010000[\toctitle].
156571 2013-02-27 23:53:45 /0106/astro-ph.0106462 020000[\nobrackets]; 1 missing file[mnextra.sty].
156572 2013-02-27 23:53:38 /0106/astro-ph.0106455 010000[\toctitle].
156573 2013-02-27 23:53:34 /0106/astro-ph.0106454 0130000[\nl, \colhead, \tablenum, \tablenotetext, \nodata, \tablehead, \tablewidth, {deluxetable}, \startdata, Align, \tablecaption, \tablenotemark, \enddata].
156574 2013-02-27 23:53:21 /0106/astro-ph.0106460 150000[\theappendix, \inst, \degr, \institute, \keywords]; 1 missing file[toledoStyle.cls].
156575 2013-02-27 23:53:13 /0106/astro-ph.0106461 080000[\affil, \aj, \reference, {references}, \acknowledgements, \aap]; 1 missing file[IAU207_pasp.sty].
156576 2013-02-27 23:53:01 /0106/astro-ph.0106448 080000[\affil, \reference, \plotone, {references}, \acknowledgments]; 1 missing file[newpasp.sty].
156577 2013-02-27 23:52:39 /0106/astro-ph.0106436 150000[\affil, \reference, {references}, \acknowledgements]; 1 missing file[newpasp.sty].
156578 2013-02-27 23:52:38 /0106/astro-ph.0106437 16320000[\affil, {keywords}, \articletitle, \inxx, {chapthebibliography}, \kluwerbib, \email, \normallatexbib, \sphline].
156579 2013-02-27 23:52:24 /0106/astro-ph.0106419 660000[\citeNP, \citeN]; 2 missing files[journals.sty, astrobib.sty].
156580 2013-02-27 23:52:10 /0106/astro-ph.0106428 140000[\reference, {references}, \acknowledgments]; 1 missing file[apj.sty].
156581 2013-02-27 23:51:57 /0106/astro-ph.0106394 510000[\theappendix].
156582 2013-02-27 23:51:28 /0106/astro-ph.0106414 040000[\affil, \reference, {references}]; 1 missing file[pasp.sty].
156583 2013-02-27 23:51:02 /0106/astro-ph.0106322 120000[{sidewaystable}]; 1 missing file[astron.sty].
156584 2013-02-27 23:50:59 /0106/astro-ph.0106422 190000[\kword, \abst, \psbox, \re]; 1 missing file[WORKSHOP.sty].
156585 2013-02-27 23:50:48 /0106/astro-ph.0106376 0240000[\theappendix, \citep, \psfig, \citet].
156586 2013-02-27 23:50:10 /0106/astro-ph.0106411 0130000[\affil, \apj, \aj, \apjl, \plotfiddle, \aap, \la, \mnras, \reference, {references}, \araa, \acknowledgements]; 1 missing file[newpasp.sty].
156587 2013-02-27 23:50:03 /0106/astro-ph.0106412 160000[\affil, \apj, \reference, \plotone, {references}]; 1 missing file[newpasp.sty].
156588 2013-02-27 23:50:03 /0106/astro-ph.0106413 090000[\affil, \aj, \aaps, \plotfiddle, \mnras, \reference, \pasp, {references}]; 1 missing file[newpasp.sty].
156589 2013-02-27 23:49:54 /0106/astro-ph.0106396 090000[\affil, \apj, \aj, \plotfiddle, \acknowledgments, \apjs, \reference, {references}]; 1 missing file[newpasp.sty].
156590 2013-02-27 23:49:52 /0106/astro-ph.0106397 0180000[\affil, \fm, \apj, \ga, \sun, \pasp, \reference, \arcsec, {references}, \aj, \tableline, \altaffilmark, \mnras, \farcm, \altaffiltext, \farcs, \plottwo]; 1 missing file[newpasp.sty].
156591 2013-02-27 23:49:48 /0106/astro-ph.0106398 080000[\affil, \pra, \apj, \reference, \aaps, {references}, \plottwo]; 1 missing file[newpasp.sty].
156592 2013-02-27 23:49:39 /0106/astro-ph.0106401 060000[\kword, \abst, \draft, \re, {fv}]; 1 missing file[PASJ95.sty].
156593 2013-02-27 23:49:31 /0106/astro-ph.0106384 110000[\astroncite].
156594 2013-02-27 23:49:03 /0106/astro-ph.0106391 050000[\psfrag].
156595 2013-02-27 23:49:00 /0106/astro-ph.0106389 060000[\affil, \reference, {references}, \acknowledgements]; 1 missing file[IAU207_pasp.sty].
156596 2013-02-27 23:48:45 /0106/astro-ph.0106375 060000[\affil, \reference, {references}, \acknowledgements]; 1 missing file[IAU207_pasp.sty].
156597 2013-02-27 23:48:37 /0106/astro-ph.0106380 020000[\psfig]; 1 missing file[psfig].
156598 2013-02-27 23:48:14 /0106/astro-ph.0106365 20100000[\affil, \citep, \correspondence, \runninghead, \firstpage, \citet, {acknowledgements}, \pubyear, \balance]; 1 missing file[icrc.cls].
156599 2013-02-27 23:48:08 /0106/astro-ph.0106366 0120000[\affil, \apj, \aj, \aap, \acknowledgments, \sun, \mnras, \ion, \reference, {references}, \araa]; 1 missing file[AATS.sty].
156600 2013-02-27 23:48:02 /0106/astro-ph.0106368 180000[\affil, \reference, \plotone, {references}]; 1 missing file[newpasp.sty].
<<< >>>

[0] [200] [400] [600] [800] [1000] [1200] [1400] [1600] [1800] [2000] [2200] [2400] [2600] [2800] [3000] [3200] [3400] [3600] [3800] [4000] [4200] [4400] [4600] [4800] [5000] [5200] [5400] [5600] [5800] [6000] [6200] [6400] [6600] [6800] [7000] [7200] [7400] [7600] [7800] [8000] [8200] [8400] [8600] [8800] [9000] [9200] [9400] [9600] [9800] [10000] [10200] [10400] [10600] [10800] [11000] [11200] [11400] [11600] [11800] [12000] [12200] [12400] [12600] [12800] [13000] [13200] [13400] [13600] [13800] [14000] [14200] [14400] [14600] [14800] [15000] [15200] [15400] [15600] [15800] [16000] [16200] [16400] [16600] [16800] [17000] [17200] [17400] [17600] [17800] [18000] [18200] [18400] [18600] [18800] [19000] [19200] [19400] [19600] [19800] [20000] [20200] [20400] [20600] [20800] [21000] [21200] [21400] [21600] [21800] [22000] [22200] [22400] [22600] [22800] [23000] [23200] [23400] [23600] [23800] [24000] [24200] [24400] [24600] [24800] [25000] [25200] [25400] [25600] [25800] [26000] [26200] [26400] [26600] [26800] [27000] [27200] [27400] [27600] [27800] [28000] [28200] [28400] [28600] [28800] [29000] [29200] [29400] [29600] [29800] [30000] [30200] [30400] [30600] [30800] [31000] [31200] [31400] [31600] [31800] [32000] [32200] [32400] [32600] [32800] [33000] [33200] [33400] [33600] [33800] [34000] [34200] [34400] [34600] [34800] [35000] [35200] [35400] [35600] [35800] [36000] [36200] [36400] [36600] [36800] [37000] [37200] [37400] [37600] [37800] [38000] [38200] [38400] [38600] [38800] [39000] [39200] [39400] [39600] [39800] [40000] [40200] [40400] [40600] [40800] [41000] [41200] [41400] [41600] [41800] [42000] [42200] [42400] [42600] [42800] [43000] [43200] [43400] [43600] [43800] [44000] [44200] [44400] [44600] [44800] [45000] [45200] [45400] [45600] [45800] [46000] [46200] [46400] [46600] [46800] [47000] [47200] [47400] [47600] [47800] [48000] [48200] [48400] [48600] [48800] [49000] [49200] [49400] [49600] [49800] [50000] [50200] [50400] [50600] [50800] [51000] [51200] [51400] [51600] [51800] [52000] [52200] [52400] [52600] [52800] [53000] [53200] [53400] [53600] [53800] [54000] [54200] [54400] [54600] [54800] [55000] [55200] [55400] [55600] [55800] [56000] [56200] [56400] [56600] [56800] [57000] [57200] [57400] [57600] [57800] [58000] [58200] [58400] [58600] [58800] [59000] [59200] [59400] [59600] [59800] [60000] [60200] [60400] [60600] [60800] [61000] [61200] [61400] [61600] [61800] [62000] [62200] [62400] [62600] [62800] [63000] [63200] [63400] [63600] [63800] [64000] [64200] [64400] [64600] [64800] [65000] [65200] [65400] [65600] [65800] [66000] [66200] [66400] [66600] [66800] [67000] [67200] [67400] [67600] [67800] [68000] [68200] [68400] [68600] [68800] [69000] [69200] [69400] [69600] [69800] [70000] [70200] [70400] [70600] [70800] [71000] [71200] [71400] [71600] [71800] [72000] [72200] [72400] [72600] [72800] [73000] [73200] [73400] [73600] [73800] [74000] [74200] [74400] [74600] [74800] [75000] [75200] [75400] [75600] [75800] [76000] [76200] [76400] [76600] [76800] [77000] [77200] [77400] [77600] [77800] [78000] [78200] [78400] [78600] [78800] [79000] [79200] [79400] [79600] [79800] [80000] [80200] [80400] [80600] [80800] [81000] [81200] [81400] [81600] [81800] [82000] [82200] [82400] [82600] [82800] [83000] [83200] [83400] [83600] [83800] [84000] [84200] [84400] [84600] [84800] [85000] [85200] [85400] [85600] [85800] [86000] [86200] [86400] [86600] [86800] [87000] [87200] [87400] [87600] [87800] [88000] [88200] [88400] [88600] [88800] [89000] [89200] [89400] [89600] [89800] [90000] [90200] [90400] [90600] [90800] [91000] [91200] [91400] [91600] [91800] [92000] [92200] [92400] [92600] [92800] [93000] [93200] [93400] [93600] [93800] [94000] [94200] [94400] [94600] [94800] [95000] [95200] [95400] [95600] [95800] [96000] [96200] [96400] [96600] [96800] [97000] [97200] [97400] [97600] [97800] [98000] [98200] [98400] [98600] [98800] [99000] [99200] [99400] [99600] [99800] [100000] [100200] [100400] [100600] [100800] [101000] [101200] [101400] [101600] [101800] [102000] [102200] [102400] [102600] [102800] [103000] [103200] [103400] [103600] [103800] [104000] [104200] [104400] [104600] [104800] [105000] [105200] [105400] [105600] [105800] [106000] [106200] [106400] [106600] [106800] [107000] [107200] [107400] [107600] [107800] [108000] [108200] [108400] [108600] [108800] [109000] [109200] [109400] [109600] [109800] [110000] [110200] [110400] [110600] [110800] [111000] [111200] [111400] [111600] [111800] [112000] [112200] [112400] [112600] [112800] [113000] [113200] [113400] [113600] [113800] [114000] [114200] [114400] [114600] [114800] [115000] [115200] [115400] [115600] [115800] [116000] [116200] [116400] [116600] [116800] [117000] [117200] [117400] [117600] [117800] [118000] [118200] [118400] [118600] [118800] [119000] [119200] [119400] [119600] [119800] [120000] [120200] [120400] [120600] [120800] [121000] [121200] [121400] [121600] [121800] [122000] [122200] [122400] [122600] [122800] [123000] [123200] [123400] [123600] [123800] [124000] [124200] [124400] [124600] [124800] [125000] [125200] [125400] [125600] [125800] [126000] [126200] [126400] [126600] [126800] [127000] [127200] [127400] [127600] [127800] [128000] [128200] [128400] [128600] [128800] [129000] [129200] [129400] [129600] [129800] [130000] [130200] [130400] [130600] [130800] [131000] [131200] [131400] [131600] [131800] [132000] [132200] [132400] [132600] [132800] [133000] [133200] [133400] [133600] [133800] [134000] [134200] [134400] [134600] [134800] [135000] [135200] [135400] [135600] [135800] [136000] [136200] [136400] [136600] [136800] [137000] [137200] [137400] [137600] [137800] [138000] [138200] [138400] [138600] [138800] [139000] [139200] [139400] [139600] [139800] [140000] [140200] [140400] [140600] [140800] [141000] [141200] [141400] [141600] [141800] [142000] [142200] [142400] [142600] [142800] [143000] [143200] [143400] [143600] [143800] [144000] [144200] [144400] [144600] [144800] [145000] [145200] [145400] [145600] [145800] [146000] [146200] [146400] [146600] [146800] [147000] [147200] [147400] [147600] [147800] [148000] [148200] [148400] [148600] [148800] [149000] [149200] [149400] [149600] [149800] [150000] [150200] [150400] [150600] [150800] [151000] [151200] [151400] [151600] [151800] [152000] [152200] [152400] [152600] [152800] [153000] [153200] [153400] [153600] [153800] [154000] [154200] [154400] [154600] [154800] [155000] [155200] [155400] [155600] [155800] [156000] [156200] [156400] [156600] [156800] [157000] [157200] [157400] [157600] [157800] [158000] [158200] [158400] [158600] [158800] [159000] [159200] [159400] [159600] [159800] [160000] [160200] [160400] [160600] [160800] [161000] [161200] [161400] [161600] [161800] [162000] [162200] [162400] [162600] [162800] [163000] [163200] [163400] [163600] [163800] [164000] [164200] [164400] [164600]
 
  The service has been written by
Heinrich Stamerjohanns